createdAt,value
2022-12-31T00:02:26.079Z,13.53
2022-12-31T00:04:54.024Z,13.59
2022-12-31T00:07:20.377Z,13.63
2022-12-31T00:09:46.757Z,13.64
2022-12-31T00:12:13.135Z,13.64
2022-12-31T00:14:39.488Z,13.62
2022-12-31T00:17:05.881Z,13.67
2022-12-31T00:19:32.285Z,13.69
2022-12-31T00:21:58.596Z,13.72
2022-12-31T00:24:25.011Z,13.69
2022-12-31T00:26:51.339Z,13.73
2022-12-31T00:29:17.684Z,13.79
2022-12-31T00:31:44.052Z,13.88
2022-12-31T00:34:10.355Z,13.95
2022-12-31T00:36:37.516Z,14.01
2022-12-31T00:39:05.177Z,14.07
2022-12-31T00:41:31.793Z,14.09
2022-12-31T00:43:58.551Z,14.07
2022-12-31T00:46:25.365Z,14.13
2022-12-31T00:48:51.744Z,14.12
2022-12-31T00:51:20.333Z,14.16
2022-12-31T00:53:46.752Z,14.15
2022-12-31T00:56:14.903Z,14.16
2022-12-31T00:58:41.695Z,14.12
2022-12-31T01:01:12.089Z,14.16
2022-12-31T01:03:38.839Z,14.17
2022-12-31T01:06:05.371Z,14.17
2022-12-31T01:08:31.769Z,14.20
2022-12-31T01:11:17.268Z,14.21
2022-12-31T01:13:43.601Z,14.27
2022-12-31T01:16:10.840Z,14.26
2022-12-31T01:18:37.273Z,14.32
2022-12-31T01:21:04.946Z,14.34
2022-12-31T01:23:31.505Z,14.31
2022-12-31T01:26:01.473Z,14.33
2022-12-31T01:28:28.249Z,14.34
2022-12-31T01:30:54.889Z,14.36
2022-12-31T01:33:21.187Z,14.36
2022-12-31T01:35:47.584Z,14.38
2022-12-31T01:38:14.995Z,14.39
2022-12-31T01:40:41.645Z,14.39
2022-12-31T01:43:19.316Z,14.42
2022-12-31T01:45:47.066Z,14.45
2022-12-31T01:48:15.222Z,14.46
2022-12-31T01:50:42.879Z,14.45
2022-12-31T01:53:10.722Z,14.44
2022-12-31T01:55:52.516Z,14.40
2022-12-31T01:58:21.918Z,14.42
2022-12-31T02:00:49.219Z,14.45
2022-12-31T02:03:15.834Z,14.46
2022-12-31T02:05:52.076Z,14.40
2022-12-31T02:08:18.480Z,14.39
2022-12-31T02:10:45.334Z,14.44
2022-12-31T02:13:12.044Z,14.45
2022-12-31T02:15:45.061Z,14.48
2022-12-31T02:18:31.619Z,14.49
2022-12-31T02:21:13.289Z,14.48
2022-12-31T02:23:48.969Z,14.47
2022-12-31T02:26:29.541Z,14.55
2022-12-31T02:29:01.976Z,14.62
2022-12-31T02:31:43.101Z,14.75
2022-12-31T02:34:16.996Z,14.76
2022-12-31T02:36:45.067Z,14.82
2022-12-31T02:39:12.268Z,14.84
2022-12-31T02:41:50.471Z,14.95
2022-12-31T02:44:27.428Z,14.98
2022-12-31T02:47:09.207Z,15.00
2022-12-31T02:49:54.512Z,15.10
2022-12-31T02:52:39.310Z,15.10
2022-12-31T02:55:14.887Z,15.11
2022-12-31T02:57:45.860Z,15.10
2022-12-31T03:00:32.578Z,15.18
2022-12-31T03:03:00.328Z,15.31
2022-12-31T03:05:29.330Z,15.33
2022-12-31T03:07:55.701Z,15.31
2022-12-31T03:10:22.023Z,15.30
2022-12-31T03:12:48.937Z,15.32
2022-12-31T03:15:20.580Z,15.32
2022-12-31T03:17:53.048Z,15.34
2022-12-31T03:20:39.252Z,15.31
2022-12-31T03:23:06.700Z,15.32
2022-12-31T03:25:33.518Z,15.38
2022-12-31T03:28:01.448Z,15.33
2022-12-31T03:30:28.524Z,15.35
2022-12-31T03:32:56.298Z,15.42
2022-12-31T03:35:23.040Z,15.43
2022-12-31T03:37:50.496Z,15.40
2022-12-31T03:40:17.960Z,15.40
2022-12-31T03:42:44.465Z,15.38
2022-12-31T03:45:11.529Z,15.38
2022-12-31T03:47:38.176Z,15.45
2022-12-31T03:50:05.488Z,15.41
2022-12-31T03:52:31.893Z,15.36
2022-12-31T03:54:58.254Z,15.37
2022-12-31T03:57:24.701Z,15.37
2022-12-31T03:59:51.037Z,15.40
2022-12-31T04:02:18.050Z,15.42
2022-12-31T04:04:46.342Z,15.42
2022-12-31T04:07:12.627Z,15.37
2022-12-31T04:09:39.016Z,15.39
2022-12-31T04:12:05.507Z,15.37
2022-12-31T04:14:31.918Z,15.36
2022-12-31T04:16:58.234Z,15.37
2022-12-31T04:19:24.633Z,15.35
2022-12-31T04:21:51.333Z,15.38
2022-12-31T04:24:17.889Z,15.37
2022-12-31T04:26:44.213Z,15.36
2022-12-31T04:29:10.782Z,15.39
2022-12-31T04:31:37.248Z,15.38
2022-12-31T04:34:04.070Z,15.40
2022-12-31T04:36:30.683Z,15.44
2022-12-31T04:38:56.999Z,15.51
2022-12-31T04:41:24.000Z,15.61
2022-12-31T04:43:52.284Z,15.66
2022-12-31T04:46:19.893Z,15.76
2022-12-31T04:48:46.463Z,15.72
2022-12-31T04:51:13.511Z,15.70
2022-12-31T04:53:43.025Z,15.73
2022-12-31T04:56:09.744Z,15.75
2022-12-31T04:58:37.390Z,15.79
2022-12-31T05:01:03.991Z,15.78
2022-12-31T05:03:30.831Z,15.75
2022-12-31T05:06:01.551Z,15.81
2022-12-31T05:08:28.075Z,15.84
2022-12-31T05:10:54.369Z,15.86
2022-12-31T05:13:20.763Z,15.90
2022-12-31T05:15:47.576Z,15.92
2022-12-31T05:18:14.311Z,15.94
2022-12-31T05:20:40.677Z,15.95
2022-12-31T05:23:07.733Z,15.94
2022-12-31T05:25:34.089Z,15.96
2022-12-31T05:28:00.444Z,16.03
2022-12-31T05:30:26.908Z,15.99
2022-12-31T05:32:53.315Z,16.10
2022-12-31T05:35:19.652Z,16.13
2022-12-31T05:37:46.243Z,16.12
2022-12-31T05:40:12.794Z,16.16
2022-12-31T05:42:39.401Z,16.26
2022-12-31T05:45:06.053Z,16.20
2022-12-31T05:47:32.552Z,16.18
2022-12-31T05:49:58.910Z,16.26
2022-12-31T05:52:25.288Z,16.21
2022-12-31T05:54:51.676Z,16.21
2022-12-31T05:57:18.058Z,16.22
2022-12-31T05:59:44.478Z,16.20
2022-12-31T06:02:10.824Z,16.21
2022-12-31T06:04:37.160Z,16.16
2022-12-31T06:07:03.511Z,16.11
2022-12-31T06:09:29.807Z,16.13
2022-12-31T06:11:59.672Z,16.05
2022-12-31T06:14:27.493Z,16.00
2022-12-31T06:16:53.783Z,15.79
2022-12-31T06:19:20.119Z,15.99
2022-12-31T06:21:46.429Z,15.98
2022-12-31T06:24:12.904Z,16.01
2022-12-31T06:26:39.505Z,16.01
2022-12-31T06:29:05.895Z,16.08
2022-12-31T06:31:32.301Z,16.13
2022-12-31T06:33:59.052Z,16.17
2022-12-31T06:36:26.956Z,16.25
2022-12-31T06:38:53.361Z,16.31
2022-12-31T06:41:19.771Z,16.35
2022-12-31T06:43:46.101Z,16.38
2022-12-31T06:46:14.212Z,16.37
2022-12-31T06:48:43.017Z,16.40
2022-12-31T06:51:16.737Z,16.45
2022-12-31T06:53:44.113Z,16.43
2022-12-31T06:56:14.370Z,16.40
2022-12-31T06:58:41.249Z,16.39
2022-12-31T07:01:23.087Z,16.41
2022-12-31T07:04:00.524Z,16.42
2022-12-31T07:06:38.358Z,16.38
2022-12-31T07:09:07.924Z,16.44
2022-12-31T07:11:44.601Z,16.38
2022-12-31T07:14:40.501Z,16.38
2022-12-31T07:17:06.903Z,16.44
2022-12-31T07:19:33.209Z,16.40
2022-12-31T07:21:59.670Z,16.45
2022-12-31T07:24:26.331Z,16.44
2022-12-31T07:27:11.546Z,16.38
2022-12-31T07:29:37.842Z,16.39
2022-12-31T07:32:04.174Z,16.33
2022-12-31T07:34:56.577Z,16.30
2022-12-31T07:37:30.193Z,16.28
2022-12-31T07:40:06.080Z,16.26
2022-12-31T07:42:41.838Z,16.23
2022-12-31T07:45:14.482Z,16.25
2022-12-31T07:47:40.951Z,16.21
2022-12-31T07:50:13.843Z,16.15
2022-12-31T07:52:40.403Z,16.16
2022-12-31T07:55:06.813Z,16.24
2022-12-31T07:57:37.358Z,16.28
2022-12-31T08:00:07.475Z,16.24
2022-12-31T08:02:40.016Z,16.28
2022-12-31T08:05:12.322Z,16.29
2022-12-31T08:07:57.043Z,16.28
2022-12-31T08:10:28.131Z,16.31
2022-12-31T08:12:58.353Z,16.30
2022-12-31T08:15:30.178Z,16.35
2022-12-31T08:17:57.083Z,16.36
2022-12-31T08:20:23.434Z,16.36
2022-12-31T08:22:52.832Z,16.36
2022-12-31T08:25:23.607Z,16.37
2022-12-31T08:27:49.886Z,16.37
2022-12-31T08:30:17.569Z,16.42
2022-12-31T08:33:10.278Z,16.47
2022-12-31T08:35:36.554Z,16.46
2022-12-31T08:38:12.232Z,16.50
2022-12-31T08:40:53.932Z,16.50
2022-12-31T08:43:20.377Z,16.54
2022-12-31T08:45:51.804Z,16.57
2022-12-31T08:48:27.156Z,16.60
2022-12-31T08:50:53.782Z,16.65
2022-12-31T08:53:22.844Z,16.65
2022-12-31T08:55:51.954Z,16.67
2022-12-31T08:58:24.443Z,16.68
2022-12-31T09:00:53.086Z,16.67
2022-12-31T09:03:19.393Z,16.70
2022-12-31T09:06:00.794Z,16.72
2022-12-31T09:08:56.931Z,16.78
2022-12-31T09:11:29.160Z,16.88
2022-12-31T09:14:16.954Z,16.91
2022-12-31T09:16:46.400Z,16.94
2022-12-31T09:19:12.981Z,16.93
2022-12-31T09:21:41.475Z,16.89
2022-12-31T09:24:09.652Z,16.88
2022-12-31T09:26:59.383Z,16.89
2022-12-31T09:29:33.669Z,16.90
2022-12-31T09:32:08.100Z,16.93
2022-12-31T09:34:38.189Z,17.00
2022-12-31T09:37:14.224Z,17.05
2022-12-31T09:39:42.124Z,17.08
2022-12-31T09:42:39.303Z,17.08
2022-12-31T09:45:05.603Z,17.12
2022-12-31T09:47:55.055Z,17.15
2022-12-31T09:50:40.497Z,17.16
2022-12-31T09:53:09.971Z,17.16
2022-12-31T09:55:49.653Z,17.20
2022-12-31T09:58:28.106Z,17.29
2022-12-31T10:01:01.277Z,17.26
2022-12-31T10:03:30.857Z,17.23
2022-12-31T10:06:16.032Z,17.22
2022-12-31T10:09:05.338Z,17.21
2022-12-31T10:11:46.828Z,17.26
2022-12-31T10:14:16.269Z,17.26
2022-12-31T10:17:01.551Z,17.30
2022-12-31T10:19:30.949Z,17.20
2022-12-31T10:22:09.489Z,17.34
2022-12-31T10:24:48.791Z,17.33
2022-12-31T10:27:32.486Z,17.38
2022-12-31T10:30:13.284Z,17.39
2022-12-31T10:32:42.662Z,17.28
2022-12-31T10:35:24.899Z,17.47
2022-12-31T10:38:29.833Z,17.45
2022-12-31T10:41:14.291Z,17.44
2022-12-31T10:43:56.189Z,17.42
2022-12-31T10:46:25.853Z,17.38
2022-12-31T10:49:18.525Z,17.32
2022-12-31T10:52:01.727Z,17.24
2022-12-31T10:54:28.004Z,17.18
2022-12-31T10:57:13.349Z,17.21
2022-12-31T10:59:58.466Z,17.26
2022-12-31T11:02:51.189Z,17.31
2022-12-31T11:05:36.193Z,17.53
2022-12-31T11:08:14.260Z,17.62
2022-12-31T11:10:59.493Z,17.60
2022-12-31T11:13:35.039Z,17.64
2022-12-31T11:16:19.482Z,17.64
2022-12-31T11:18:49.152Z,17.60
2022-12-31T11:21:41.316Z,17.59
2022-12-31T11:24:22.839Z,17.63
2022-12-31T11:27:07.507Z,17.66
2022-12-31T11:29:40.022Z,17.71
2022-12-31T11:32:12.977Z,17.83
2022-12-31T11:34:56.041Z,17.85
2022-12-31T11:37:29.821Z,17.84
2022-12-31T11:40:14.986Z,17.83
2022-12-31T11:42:50.102Z,17.79
2022-12-31T11:45:20.767Z,17.77
2022-12-31T11:48:29.077Z,17.75
2022-12-31T11:50:42.012Z,17.70
2022-12-31T11:53:25.638Z,17.71
2022-12-31T11:56:10.651Z,17.68
2022-12-31T11:58:37.224Z,17.66
2022-12-31T12:01:03.817Z,17.65
2022-12-31T12:03:31.442Z,17.67
2022-12-31T12:05:58.179Z,17.70
2022-12-31T12:08:25.585Z,17.71
2022-12-31T12:10:53.371Z,17.71
2022-12-31T12:13:21.783Z,17.72
2022-12-31T12:15:49.640Z,17.74
2022-12-31T12:18:27.991Z,17.74
2022-12-31T12:21:01.297Z,17.74
2022-12-31T12:23:27.790Z,17.73
2022-12-31T12:25:54.170Z,17.74
2022-12-31T12:28:22.199Z,17.80
2022-12-31T12:30:58.216Z,17.87
2022-12-31T12:33:24.929Z,17.95
2022-12-31T12:35:51.516Z,18.01
2022-12-31T12:38:19.169Z,18.09
2022-12-31T12:41:02.419Z,18.11
2022-12-31T12:43:34.348Z,18.13
2022-12-31T12:46:02.745Z,18.04
2022-12-31T12:48:38.353Z,18.01
2022-12-31T12:51:25.822Z,18.08
2022-12-31T12:53:59.548Z,18.08
2022-12-31T12:56:30.479Z,18.08
2022-12-31T12:59:17.320Z,18.07
2022-12-31T13:01:50.040Z,18.10
2022-12-31T13:04:34.072Z,18.09
2022-12-31T13:07:00.879Z,18.03
2022-12-31T13:09:27.163Z,17.99
2022-12-31T13:12:07.607Z,17.94
2022-12-31T13:14:34.352Z,17.92
2022-12-31T13:17:16.564Z,17.94
2022-12-31T13:19:42.890Z,17.96
2022-12-31T13:22:28.150Z,17.89
2022-12-31T13:25:07.213Z,17.78
2022-12-31T13:27:42.342Z,17.66
2022-12-31T13:30:34.801Z,17.62
2022-12-31T13:33:03.669Z,17.60
2022-12-31T13:35:37.751Z,17.54
2022-12-31T13:38:24.022Z,17.47
2022-12-31T13:40:59.740Z,17.42
2022-12-31T13:43:47.244Z,17.32
2022-12-31T13:46:39.669Z,17.29
2022-12-31T13:49:19.019Z,17.32
2022-12-31T13:51:50.443Z,17.37
2022-12-31T13:54:16.738Z,17.39
2022-12-31T13:56:45.315Z,17.39
2022-12-31T13:59:28.220Z,17.36
2022-12-31T14:01:59.265Z,17.31
2022-12-31T14:04:42.443Z,17.26
2022-12-31T14:07:26.655Z,17.25
2022-12-31T14:09:55.673Z,17.27
2022-12-31T14:12:57.709Z,17.26
2022-12-31T14:15:29.325Z,17.25
2022-12-31T14:18:14.044Z,17.24
2022-12-31T14:20:40.407Z,17.21
2022-12-31T14:23:24.251Z,17.19
2022-12-31T14:25:54.657Z,17.19
2022-12-31T14:28:27.981Z,17.19
2022-12-31T14:31:00.395Z,17.17
2022-12-31T14:33:50.131Z,17.16
2022-12-31T14:36:49.047Z,17.17
2022-12-31T14:39:16.479Z,17.14
2022-12-31T14:41:52.031Z,17.12
2022-12-31T14:44:18.606Z,17.11
2022-12-31T14:46:54.125Z,17.12
2022-12-31T14:49:39.417Z,17.11
2022-12-31T14:52:20.499Z,17.13
2022-12-31T14:54:57.293Z,17.14
2022-12-31T14:57:24.311Z,17.13
2022-12-31T14:59:57.861Z,17.08
2022-12-31T15:02:34.702Z,17.10
2022-12-31T15:05:11.319Z,17.10
2022-12-31T15:07:46.813Z,17.10
2022-12-31T15:10:13.126Z,17.12
2022-12-31T15:13:06.135Z,17.10
2022-12-31T15:15:40.702Z,17.12
2022-12-31T15:18:16.317Z,17.10
2022-12-31T15:20:48.684Z,17.05
2022-12-31T15:23:22.996Z,17.05
2022-12-31T15:25:53.278Z,17.06
2022-12-31T15:28:28.820Z,17.04
2022-12-31T15:31:06.885Z,17.04
2022-12-31T15:33:36.404Z,17.00
2022-12-31T15:36:29.157Z,16.98
2022-12-31T15:39:15.709Z,16.96
2022-12-31T15:42:18.694Z,16.92
2022-12-31T15:44:45.456Z,16.82
2022-12-31T15:47:44.233Z,16.81
2022-12-31T15:50:19.820Z,16.76
2022-12-31T15:52:50.655Z,16.72
2022-12-31T15:55:21.927Z,16.71
2022-12-31T15:57:49.272Z,16.73
2022-12-31T16:00:16.073Z,16.72
2022-12-31T16:02:43.103Z,16.72
2022-12-31T16:05:20.537Z,16.70
2022-12-31T16:07:47.375Z,16.68
2022-12-31T16:10:30.983Z,16.68
2022-12-31T16:12:58.322Z,16.67
2022-12-31T16:15:26.989Z,16.68
2022-12-31T16:17:59.505Z,16.71
2022-12-31T16:20:27.525Z,16.69
2022-12-31T16:22:57.403Z,16.34
2022-12-31T16:25:33.042Z,16.66
2022-12-31T16:28:01.531Z,16.65
2022-12-31T16:30:29.206Z,16.64
2022-12-31T16:32:58.188Z,16.60
2022-12-31T16:35:29.450Z,16.59
2022-12-31T16:38:02.183Z,16.56
2022-12-31T16:40:28.643Z,16.52
2022-12-31T16:42:55.064Z,16.49
2022-12-31T16:45:35.480Z,16.45
2022-12-31T16:48:13.025Z,16.40
2022-12-31T16:50:47.656Z,16.35
2022-12-31T16:53:17.401Z,16.34
2022-12-31T16:55:44.837Z,16.31
2022-12-31T16:58:17.278Z,16.30
2022-12-31T17:00:44.034Z,16.28
2022-12-31T17:03:17.629Z,16.25
2022-12-31T17:06:06.821Z,16.21
2022-12-31T17:08:55.548Z,16.21
2022-12-31T17:12:03.979Z,16.19
2022-12-31T17:14:50.223Z,16.16
2022-12-31T17:17:37.290Z,16.13
2022-12-31T17:20:24.582Z,16.10
2022-12-31T17:23:12.591Z,16.10
2022-12-31T17:26:03.006Z,16.08
2022-12-31T17:28:49.780Z,16.05
2022-12-31T17:31:40.544Z,16.07
2022-12-31T17:34:30.100Z,16.05
2022-12-31T17:37:19.683Z,16.05
2022-12-31T17:40:49.332Z,16.04
2022-12-31T17:43:11.572Z,16.03
2022-12-31T17:45:56.528Z,16.01
2022-12-31T17:48:41.683Z,16.03
2022-12-31T17:51:26.738Z,16.03
2022-12-31T17:54:15.338Z,16.01
2022-12-31T17:57:00.567Z,15.99
2022-12-31T17:59:45.225Z,15.99
2022-12-31T18:02:26.648Z,16.02
2022-12-31T18:05:16.587Z,16.00
2022-12-31T18:08:01.706Z,15.99
2022-12-31T18:10:46.731Z,16.02
2022-12-31T18:13:31.713Z,16.01
2022-12-31T18:16:17.129Z,16.04
2022-12-31T18:19:02.176Z,16.01
2022-12-31T18:21:46.995Z,15.99
2022-12-31T18:24:31.737Z,15.96
2022-12-31T18:27:17.935Z,15.97
2022-12-31T18:30:05.601Z,15.94
2022-12-31T18:32:53.549Z,15.93
2022-12-31T18:36:07.871Z,15.92
2022-12-31T18:38:45.223Z,15.89
2022-12-31T18:41:36.132Z,15.89
2022-12-31T18:44:21.208Z,15.90
2022-12-31T18:47:11.585Z,15.91
2022-12-31T18:49:56.346Z,15.90
2022-12-31T18:52:41.344Z,15.90
2022-12-31T18:55:30.466Z,15.90
2022-12-31T18:58:15.746Z,15.89
2022-12-31T19:01:00.946Z,15.89
2022-12-31T19:03:46.258Z,15.88
2022-12-31T19:06:30.954Z,15.89
2022-12-31T19:09:44.226Z,15.89
2022-12-31T19:12:22.604Z,15.88
2022-12-31T19:15:24.814Z,15.88
2022-12-31T19:18:09.668Z,15.84
2022-12-31T19:20:54.496Z,15.87
2022-12-31T19:23:39.341Z,15.71
2022-12-31T19:26:24.117Z,15.87
2022-12-31T19:29:19.391Z,15.90
2022-12-31T19:32:04.805Z,15.88
2022-12-31T19:34:49.994Z,15.86
2022-12-31T19:37:34.826Z,15.83
2022-12-31T19:40:24.339Z,15.83
2022-12-31T19:43:11.635Z,15.79
2022-12-31T19:45:56.599Z,15.79
2022-12-31T19:48:41.535Z,15.81
2022-12-31T19:51:26.407Z,15.81
2022-12-31T19:54:14.167Z,15.80
2022-12-31T19:56:59.109Z,15.76
2022-12-31T19:59:44.241Z,15.78
2022-12-31T20:02:29.355Z,15.80
2022-12-31T20:05:15.604Z,15.77
2022-12-31T20:08:00.458Z,15.75
2022-12-31T20:10:45.927Z,15.73
2022-12-31T20:13:31.015Z,15.72
2022-12-31T20:16:17.123Z,15.71
2022-12-31T20:19:02.140Z,15.70
2022-12-31T20:21:47.089Z,15.70
2022-12-31T20:24:32.005Z,15.67
2022-12-31T20:27:18.732Z,15.66
2022-12-31T20:30:04.225Z,15.62
2022-12-31T20:32:51.580Z,15.62
2022-12-31T20:35:36.732Z,15.58
2022-12-31T20:38:21.492Z,15.58
2022-12-31T20:41:10.508Z,15.60
2022-12-31T20:43:55.379Z,15.61
2022-12-31T20:46:40.109Z,15.63
2022-12-31T20:49:52.277Z,15.60
2022-12-31T20:52:30.279Z,15.57
2022-12-31T20:55:16.738Z,15.61
2022-12-31T20:58:01.879Z,15.58
2022-12-31T21:00:50.580Z,15.56
2022-12-31T21:04:04.331Z,15.54
2022-12-31T21:06:41.289Z,15.51
2022-12-31T21:09:26.200Z,15.49
2022-12-31T21:12:29.670Z,15.50
2022-12-31T21:15:14.828Z,15.52
2022-12-31T21:18:00.202Z,15.50
2022-12-31T21:20:46.101Z,15.50
2022-12-31T21:23:31.199Z,15.48
2022-12-31T21:26:16.077Z,15.46
2022-12-31T21:29:01.046Z,15.45
2022-12-31T21:31:45.876Z,15.43
2022-12-31T21:34:30.677Z,15.42
2022-12-31T21:37:15.602Z,15.39
2022-12-31T21:40:00.421Z,15.40
2022-12-31T21:42:45.357Z,15.42
2022-12-31T21:45:30.655Z,15.41
2022-12-31T21:48:22.065Z,15.40
2022-12-31T21:51:08.668Z,15.39
2022-12-31T21:53:53.585Z,15.39
2022-12-31T21:56:38.586Z,15.37
2022-12-31T21:59:46.449Z,15.34
2022-12-31T22:02:50.530Z,15.34
2022-12-31T22:05:50.347Z,15.36
2022-12-31T22:08:35.567Z,15.43
2022-12-31T22:11:21.791Z,15.49
2022-12-31T22:14:06.589Z,15.55
2022-12-31T22:16:51.385Z,15.59
2022-12-31T22:19:54.644Z,15.60
2022-12-31T22:22:40.938Z,15.62
2022-12-31T22:25:25.773Z,15.61
2022-12-31T22:28:37.399Z,15.61
2022-12-31T22:31:17.229Z,15.58
2022-12-31T22:34:02.019Z,15.57
2022-12-31T22:36:46.794Z,15.55
2022-12-31T22:39:43.643Z,15.54
2022-12-31T22:42:29.584Z,15.53
2022-12-31T22:45:14.322Z,15.54
2022-12-31T22:47:59.082Z,15.54
2022-12-31T22:50:44.053Z,15.49
2022-12-31T22:53:29.149Z,15.46
2022-12-31T22:56:16.097Z,15.45
2022-12-31T22:59:01.426Z,15.42
2022-12-31T23:01:46.317Z,15.39
2022-12-31T23:04:31.715Z,15.39
2022-12-31T23:07:17.013Z,15.37
2022-12-31T23:10:20.645Z,15.36
2022-12-31T23:13:24.531Z,15.36
2022-12-31T23:16:28.524Z,15.39
2022-12-31T23:19:32.669Z,15.41
2022-12-31T23:22:17.568Z,15.43
2022-12-31T23:24:44.111Z,15.44
2022-12-31T23:27:11.034Z,15.45
2022-12-31T23:29:45.693Z,15.47
2022-12-31T23:32:12.874Z,15.50
2022-12-31T23:34:39.276Z,15.52
2022-12-31T23:37:05.856Z,15.54
2022-12-31T23:39:32.661Z,15.51
2022-12-31T23:42:00.119Z,15.49
2022-12-31T23:44:27.044Z,15.45
2022-12-31T23:46:54.164Z,15.44
2022-12-31T23:49:20.877Z,15.44
2022-12-31T23:51:47.369Z,15.41
2022-12-31T23:54:14.779Z,15.42
2022-12-31T23:56:41.190Z,15.40
2022-12-31T23:59:10.730Z,15.38
